createdAt,value
2023-02-12T00:00:15.833Z,28.07
2023-02-12T00:00:47.738Z,27.83
2023-02-12T00:01:21.221Z,27.77
2023-02-12T00:01:52.908Z,29.33
2023-02-12T00:02:24.648Z,30.73
2023-02-12T00:02:56.313Z,30.73
2023-02-12T00:03:28.298Z,28.17
2023-02-12T00:04:00.361Z,28.10
2023-02-12T00:04:32.052Z,28.37
2023-02-12T00:05:04.013Z,30.43
2023-02-12T00:05:38.345Z,28.90
2023-02-12T00:06:12.489Z,28.53
2023-02-12T00:06:45.277Z,28.60
2023-02-12T00:07:16.966Z,30.13
2023-02-12T00:07:48.787Z,28.37
2023-02-12T00:08:20.438Z,29.47
2023-02-12T00:08:54.996Z,30.87
2023-02-12T00:09:26.738Z,29.73
2023-02-12T00:09:58.414Z,29.07
2023-02-12T00:10:30.038Z,30.03
2023-02-12T00:11:15.004Z,29.43
2023-02-12T00:11:46.634Z,29.20
2023-02-12T00:12:18.299Z,28.70
2023-02-12T00:12:50.188Z,29.23
2023-02-12T00:13:21.957Z,27.50
2023-02-12T00:13:54.563Z,28.27
2023-02-12T00:14:26.216Z,27.77
2023-02-12T00:14:57.900Z,27.83
2023-02-12T00:15:29.617Z,29.63
2023-02-12T00:16:05.668Z,29.97
2023-02-12T00:16:37.330Z,28.97
2023-02-12T00:17:09.058Z,27.97
2023-02-12T00:17:40.682Z,29.27
2023-02-12T00:18:12.397Z,29.47
2023-02-12T00:18:45.224Z,29.83
2023-02-12T00:19:16.910Z,29.80
2023-02-12T00:19:49.020Z,29.47
2023-02-12T00:20:20.793Z,28.47
2023-02-12T00:20:52.430Z,28.63
2023-02-12T00:21:25.194Z,29.17
2023-02-12T00:21:56.981Z,30.47
2023-02-12T00:22:29.616Z,30.13
2023-02-12T00:23:01.353Z,29.27
2023-02-12T00:23:33.057Z,29.27
2023-02-12T00:24:04.915Z,30.03
2023-02-12T00:24:36.682Z,29.60
2023-02-12T00:25:08.613Z,29.37
2023-02-12T00:25:43.036Z,29.90
2023-02-12T00:26:17.673Z,29.60
2023-02-12T00:26:51.006Z,29.60
2023-02-12T00:27:23.315Z,29.80
2023-02-12T00:27:54.977Z,28.00
2023-02-12T00:28:27.064Z,27.97
2023-02-12T00:28:58.804Z,29.37
2023-02-12T00:29:30.440Z,29.67
2023-02-12T00:30:02.331Z,29.13
2023-02-12T00:30:33.997Z,28.63
2023-02-12T00:31:07.740Z,28.80
2023-02-12T00:31:39.839Z,29.03
2023-02-12T00:32:11.827Z,28.63
2023-02-12T00:32:45.550Z,29.47
2023-02-12T00:33:17.402Z,28.83
2023-02-12T00:33:49.531Z,29.33
2023-02-12T00:34:21.174Z,30.07
2023-02-12T00:34:52.825Z,30.37
2023-02-12T00:35:24.464Z,30.53
2023-02-12T00:35:59.161Z,31.30
2023-02-12T00:36:32.430Z,30.00
2023-02-12T00:37:04.100Z,29.03
2023-02-12T00:37:35.787Z,28.33
2023-02-12T00:38:07.452Z,29.13
2023-02-12T00:38:39.103Z,29.90
2023-02-12T00:39:11.463Z,30.20
2023-02-12T00:39:43.443Z,30.10
2023-02-12T00:40:15.103Z,29.93
2023-02-12T00:40:46.881Z,29.40
2023-02-12T00:41:19.678Z,30.70
2023-02-12T00:41:51.317Z,30.60
2023-02-12T00:42:23.032Z,29.77
2023-02-12T00:42:54.650Z,29.07
2023-02-12T00:43:26.466Z,30.50
2023-02-12T00:43:58.228Z,30.43
2023-02-12T00:44:29.952Z,29.67
2023-02-12T00:45:01.645Z,30.87
2023-02-12T00:45:33.318Z,29.83
2023-02-12T00:46:06.974Z,29.50
2023-02-12T00:46:38.770Z,29.83
2023-02-12T00:47:10.461Z,30.23
2023-02-12T00:47:42.212Z,29.77
2023-02-12T00:48:15.110Z,29.77
2023-02-12T00:48:46.965Z,30.97
2023-02-12T00:49:20.414Z,30.03
2023-02-12T00:49:52.163Z,29.43
2023-02-12T00:50:23.902Z,29.50
2023-02-12T00:50:55.560Z,31.40
2023-02-12T00:51:27.244Z,30.30
2023-02-12T00:51:58.905Z,29.13
2023-02-12T00:52:30.601Z,30.57
2023-02-12T00:53:02.240Z,30.90
2023-02-12T00:53:34.497Z,30.37
2023-02-12T00:54:06.161Z,30.57
2023-02-12T00:54:37.956Z,30.73
2023-02-12T00:55:09.662Z,30.57
2023-02-12T00:55:41.649Z,29.53
2023-02-12T00:56:13.541Z,28.57
2023-02-12T00:56:45.164Z,28.70
2023-02-12T00:57:16.814Z,29.30
2023-02-12T00:57:48.517Z,30.47
2023-02-12T00:58:20.182Z,29.87
2023-02-12T00:58:51.815Z,29.60
2023-02-12T00:59:24.381Z,29.77
2023-02-12T00:59:56.025Z,29.70
2023-02-12T01:00:27.693Z,30.50
2023-02-12T01:00:59.395Z,30.20
2023-02-12T01:01:31.159Z,29.93
2023-02-12T01:02:02.822Z,30.93
2023-02-12T01:02:34.483Z,31.93
2023-02-12T01:03:06.432Z,30.77
2023-02-12T01:03:38.794Z,30.50
2023-02-12T01:04:10.482Z,29.80
2023-02-12T01:04:42.354Z,29.43
2023-02-12T01:05:14.064Z,29.57
2023-02-12T01:05:46.250Z,31.03
2023-02-12T01:06:17.943Z,29.70
2023-02-12T01:06:49.698Z,30.40
2023-02-12T01:07:21.509Z,29.63
2023-02-12T01:07:54.412Z,29.83
2023-02-12T01:08:26.406Z,30.17
2023-02-12T01:08:58.049Z,31.17
2023-02-12T01:09:29.784Z,30.70
2023-02-12T01:10:01.468Z,29.70
2023-02-12T01:10:33.306Z,29.63
2023-02-12T01:11:05.937Z,30.93
2023-02-12T01:11:37.703Z,30.77
2023-02-12T01:12:09.470Z,29.97
2023-02-12T01:12:41.162Z,30.87
2023-02-12T01:13:14.765Z,31.13
2023-02-12T01:13:46.538Z,31.97
2023-02-12T01:14:18.190Z,32.00
2023-02-12T01:14:49.846Z,31.37
2023-02-12T01:15:21.908Z,31.33
2023-02-12T01:16:13.277Z,31.00
2023-02-12T01:16:44.989Z,30.53
2023-02-12T01:17:16.813Z,31.37
2023-02-12T01:17:48.586Z,30.20
2023-02-12T01:18:20.279Z,31.50
2023-02-12T01:18:55.858Z,30.93
2023-02-12T01:19:27.958Z,30.90
2023-02-12T01:19:59.698Z,32.17
2023-02-12T01:20:31.399Z,31.80
2023-02-12T01:21:09.935Z,30.80
2023-02-12T01:21:41.607Z,30.67
2023-02-12T01:22:13.257Z,31.90
2023-02-12T01:22:45.279Z,30.67
2023-02-12T01:23:17.154Z,29.50
2023-02-12T01:23:49.407Z,29.80
2023-02-12T01:24:21.134Z,30.77
2023-02-12T01:24:52.817Z,30.57
2023-02-12T01:25:24.465Z,30.57
2023-02-12T01:25:58.424Z,31.60
2023-02-12T01:26:31.806Z,30.40
2023-02-12T01:27:03.562Z,30.23
2023-02-12T01:27:35.414Z,31.33
2023-02-12T01:28:07.154Z,31.03
2023-02-12T01:28:41.005Z,30.97
2023-02-12T01:29:12.736Z,30.53
2023-02-12T01:29:44.733Z,29.43
2023-02-12T01:30:16.580Z,31.03
2023-02-12T01:30:48.507Z,30.27
2023-02-12T01:31:23.966Z,30.40
2023-02-12T01:31:55.862Z,31.93
2023-02-12T01:32:28.271Z,31.43
2023-02-12T01:33:00.652Z,30.50
2023-02-12T01:33:32.300Z,30.50
2023-02-12T01:34:05.604Z,30.67
2023-02-12T01:34:37.793Z,32.53
2023-02-12T01:35:10.493Z,32.10
2023-02-12T01:35:42.241Z,30.57
2023-02-12T01:36:14.164Z,30.03
2023-02-12T01:36:45.881Z,30.83
2023-02-12T01:37:17.510Z,30.63
2023-02-12T01:37:49.157Z,30.30
2023-02-12T01:38:20.820Z,31.10
2023-02-12T01:38:52.525Z,31.00
2023-02-12T01:39:24.188Z,30.90
2023-02-12T01:39:55.869Z,30.63
2023-02-12T01:40:27.554Z,31.60
2023-02-12T01:41:07.712Z,30.53
2023-02-12T01:41:43.031Z,30.53
2023-02-12T01:42:16.320Z,32.80
2023-02-12T01:42:48.080Z,33.10
2023-02-12T01:43:19.785Z,31.83
2023-02-12T01:44:09.117Z,31.40
2023-02-12T01:44:46.474Z,31.97
2023-02-12T01:45:23.659Z,32.20
2023-02-12T01:45:55.555Z,31.73
2023-02-12T01:46:27.431Z,31.87
2023-02-12T01:47:04.446Z,31.93
2023-02-12T01:47:36.105Z,32.60
2023-02-12T01:48:08.269Z,32.30
2023-02-12T01:48:44.440Z,30.73
2023-02-12T01:49:24.696Z,32.77
2023-02-12T01:49:56.898Z,31.87
2023-02-12T01:50:28.985Z,31.67
2023-02-12T01:51:03.886Z,32.23
2023-02-12T01:51:36.803Z,31.50
2023-02-12T01:52:15.511Z,31.53
2023-02-12T01:52:54.384Z,30.03
2023-02-12T01:53:35.820Z,31.50
2023-02-12T01:54:10.915Z,33.37
2023-02-12T01:54:44.853Z,32.93
2023-02-12T01:55:16.583Z,32.23
2023-02-12T01:55:53.155Z,31.80
2023-02-12T01:56:25.680Z,33.03
2023-02-12T01:56:57.477Z,32.47
2023-02-12T01:57:33.821Z,31.07
2023-02-12T01:58:06.285Z,32.40
2023-02-12T01:58:44.191Z,34.40
2023-02-12T01:59:18.942Z,32.03
2023-02-12T01:59:56.590Z,32.77
2023-02-12T02:00:28.660Z,32.50
2023-02-12T02:01:02.856Z,32.70
2023-02-12T02:01:35.295Z,31.83
2023-02-12T02:02:08.421Z,31.17
2023-02-12T02:02:40.553Z,33.27
2023-02-12T02:03:13.038Z,33.13
2023-02-12T02:03:50.344Z,34.50
2023-02-12T02:04:29.199Z,34.17
2023-02-12T02:05:04.085Z,32.27
2023-02-12T02:05:41.827Z,31.67
2023-02-12T02:06:20.294Z,31.70
2023-02-12T02:07:12.552Z,32.13
2023-02-12T02:07:45.456Z,33.30
2023-02-12T02:08:17.254Z,33.87
2023-02-12T02:08:50.078Z,32.43
2023-02-12T02:09:22.396Z,33.07
2023-02-12T02:09:54.590Z,33.47
2023-02-12T02:10:26.453Z,32.37
2023-02-12T02:10:58.098Z,33.13
2023-02-12T02:11:48.371Z,32.70
2023-02-12T02:12:38.798Z,33.17
2023-02-12T02:13:29.105Z,34.70
2023-02-12T02:14:20.035Z,33.00
2023-02-12T02:14:56.536Z,33.13
2023-02-12T02:15:32.062Z,32.30
2023-02-12T02:16:29.048Z,32.57
2023-02-12T02:17:16.469Z,33.33
2023-02-12T02:18:16.255Z,33.33
2023-02-12T02:19:00.536Z,32.23
2023-02-12T02:19:51.452Z,32.73
2023-02-12T02:20:59.467Z,31.70
2023-02-12T02:21:52.622Z,32.40
2023-02-12T02:22:56.733Z,32.43
2023-02-12T02:24:05.734Z,30.30
2023-02-12T02:25:01.696Z,31.87
2023-02-12T02:26:10.730Z,32.73
2023-02-12T02:27:03.222Z,32.33
2023-02-12T02:27:49.908Z,30.80
2023-02-12T02:28:40.210Z,31.87
2023-02-12T02:29:20.898Z,32.17
2023-02-12T02:30:12.759Z,31.17
2023-02-12T02:31:13.795Z,33.83
2023-02-12T02:32:37.379Z,33.43
2023-02-12T02:33:20.797Z,33.17
2023-02-12T02:34:23.426Z,32.83
2023-02-12T02:35:17.635Z,32.83
2023-02-12T02:36:05.609Z,32.80
2023-02-12T02:36:59.336Z,32.90
2023-02-12T02:37:40.056Z,33.30
2023-02-12T02:38:30.183Z,34.40
2023-02-12T02:39:20.545Z,31.90
2023-02-12T02:39:58.533Z,32.50
2023-02-12T02:40:49.519Z,31.87
2023-02-12T02:41:34.418Z,32.63
2023-02-12T02:42:18.750Z,34.13
2023-02-12T02:43:11.004Z,34.43
2023-02-12T02:43:49.854Z,32.93
2023-02-12T02:44:35.165Z,33.37
2023-02-12T02:45:23.611Z,33.40
2023-02-12T02:46:14.728Z,33.83
2023-02-12T02:46:50.161Z,34.87
2023-02-12T02:47:27.962Z,32.93
2023-02-12T02:48:16.430Z,33.83
2023-02-12T02:48:57.727Z,33.87
2023-02-12T02:49:38.192Z,33.40
2023-02-12T02:50:14.900Z,33.00
2023-02-12T02:50:52.535Z,32.40
2023-02-12T02:51:31.224Z,34.03
2023-02-12T02:52:15.781Z,34.23
2023-02-12T02:52:57.237Z,34.37
2023-02-12T02:53:37.865Z,34.03
2023-02-12T02:54:16.071Z,33.80
2023-02-12T02:54:57.597Z,32.57
2023-02-12T02:55:38.887Z,33.97
2023-02-12T02:56:17.683Z,33.97
2023-02-12T02:56:54.919Z,34.30
2023-02-12T02:57:32.774Z,33.97
2023-02-12T02:58:12.121Z,33.80
2023-02-12T02:58:53.045Z,35.27
2023-02-12T02:59:32.968Z,34.73
2023-02-12T03:00:20.487Z,35.63
2023-02-12T03:01:02.191Z,35.80
2023-02-12T03:01:44.155Z,35.47
2023-02-12T03:02:29.231Z,34.93
2023-02-12T03:03:10.482Z,36.17
2023-02-12T03:03:54.901Z,34.33
2023-02-12T03:04:38.954Z,34.30
2023-02-12T03:05:32.333Z,35.50
2023-02-12T03:06:13.805Z,35.70
2023-02-12T03:07:02.266Z,34.53
2023-02-12T03:07:44.366Z,33.80
2023-02-12T03:08:25.240Z,34.07
2023-02-12T03:09:05.422Z,35.20
2023-02-12T03:09:44.067Z,34.53
2023-02-12T03:10:27.572Z,34.73
2023-02-12T03:11:19.916Z,35.40
2023-02-12T03:11:58.726Z,34.80
2023-02-12T03:12:48.907Z,34.60
2023-02-12T03:13:43.051Z,34.13
2023-02-12T03:14:20.833Z,34.23
2023-02-12T03:15:03.000Z,33.37
2023-02-12T03:15:39.180Z,35.10
2023-02-12T03:16:16.834Z,33.90
2023-02-12T03:16:59.705Z,34.90
2023-02-12T03:17:39.846Z,33.40
2023-02-12T03:18:26.369Z,33.90
2023-02-12T03:19:12.057Z,36.10
2023-02-12T03:19:52.479Z,35.67
2023-02-12T03:20:33.613Z,34.90
2023-02-12T03:21:13.656Z,34.27
2023-02-12T03:22:08.544Z,34.77
2023-02-12T03:22:46.978Z,34.50
2023-02-12T03:24:08.574Z,34.13
2023-02-12T03:25:04.747Z,34.53
2023-02-12T03:25:57.788Z,35.27
2023-02-12T03:26:43.542Z,33.50
2023-02-12T03:27:23.124Z,35.13
2023-02-12T03:28:02.906Z,34.63
2023-02-12T03:28:38.406Z,34.37
2023-02-12T03:29:10.497Z,34.07
2023-02-12T03:29:42.194Z,33.63
2023-02-12T03:30:14.845Z,34.03
2023-02-12T03:31:10.686Z,35.23
2023-02-12T03:32:11.637Z,34.83
2023-02-12T03:33:03.492Z,35.87
2023-02-12T03:33:39.739Z,34.57
2023-02-12T03:34:48.302Z,35.23
2023-02-12T03:35:38.454Z,34.90
2023-02-12T03:36:10.092Z,35.63
2023-02-12T03:36:48.881Z,35.07
2023-02-12T03:37:55.599Z,35.13
2023-02-12T03:38:36.810Z,36.37
2023-02-12T03:39:15.276Z,36.37
2023-02-12T03:39:57.701Z,34.93
2023-02-12T03:40:41.217Z,34.40
2023-02-12T03:41:23.056Z,34.80
2023-02-12T03:42:11.330Z,35.23
2023-02-12T03:43:02.960Z,35.13
2023-02-12T03:43:50.516Z,35.60
2023-02-12T03:44:48.481Z,35.10
2023-02-12T03:45:49.615Z,35.00
2023-02-12T03:46:53.448Z,36.87
2023-02-12T03:47:25.077Z,35.80
2023-02-12T03:48:33.123Z,36.17
2023-02-12T03:49:20.738Z,35.43
2023-02-12T03:50:07.425Z,36.90
2023-02-12T03:50:44.458Z,36.03
2023-02-12T03:51:28.848Z,35.67
2023-02-12T03:52:00.904Z,36.20
2023-02-12T03:52:33.731Z,35.83
2023-02-12T03:53:06.672Z,36.13
2023-02-12T03:53:38.474Z,35.23
2023-02-12T03:54:15.745Z,34.77
2023-02-12T03:54:47.878Z,33.53
2023-02-12T03:55:19.842Z,34.03
2023-02-12T03:55:58.137Z,36.27
2023-02-12T03:56:41.369Z,35.93
2023-02-12T03:57:21.758Z,35.23
2023-02-12T03:58:02.048Z,36.77
2023-02-12T03:58:36.262Z,34.70
2023-02-12T03:59:08.255Z,36.10
2023-02-12T03:59:41.183Z,35.87
2023-02-12T04:00:20.477Z,36.07
2023-02-12T04:00:52.407Z,34.33
2023-02-12T04:01:24.507Z,34.20
2023-02-12T04:01:59.812Z,35.33
2023-02-12T04:02:31.716Z,35.13
2023-02-12T04:03:04.802Z,35.47
2023-02-12T04:03:36.559Z,35.93
2023-02-12T04:04:10.323Z,36.03
2023-02-12T04:04:43.573Z,34.90
2023-02-12T04:05:21.504Z,35.17
2023-02-12T04:05:53.353Z,36.27
2023-02-12T04:06:28.827Z,35.27
2023-02-12T04:07:01.357Z,35.87
2023-02-12T04:07:35.003Z,36.57
2023-02-12T04:08:09.201Z,36.57
2023-02-12T04:08:40.880Z,35.57
2023-02-12T04:09:13.961Z,34.87
2023-02-12T04:09:45.755Z,35.17
2023-02-12T04:10:18.891Z,36.13
2023-02-12T04:11:24.486Z,36.13
2023-02-12T04:12:26.752Z,35.60
2023-02-12T04:13:07.394Z,35.97
2023-02-12T04:13:50.986Z,35.63
2023-02-12T04:14:26.816Z,36.13
2023-02-12T04:15:35.872Z,36.40
2023-02-12T04:16:23.274Z,34.53
2023-02-12T04:17:07.223Z,35.77
2023-02-12T04:17:50.172Z,36.40
2023-02-12T04:18:40.786Z,36.57
2023-02-12T04:19:20.002Z,36.03
2023-02-12T04:20:21.161Z,35.93
2023-02-12T04:21:38.822Z,37.10
2023-02-12T04:22:28.477Z,36.20
2023-02-12T04:23:37.463Z,36.87
2023-02-12T04:24:32.557Z,35.40
2023-02-12T04:25:24.415Z,36.60
2023-02-12T04:26:18.570Z,35.17
2023-02-12T04:27:12.166Z,36.10
2023-02-12T04:27:56.145Z,36.00
2023-02-12T04:28:35.288Z,37.03
2023-02-12T04:29:41.171Z,37.63
2023-02-12T04:30:28.962Z,36.80
2023-02-12T04:31:20.722Z,37.30
2023-02-12T04:32:19.709Z,34.83
2023-02-12T04:32:59.254Z,36.87
2023-02-12T04:33:59.426Z,35.37
2023-02-12T04:34:45.391Z,36.10
2023-02-12T04:35:35.398Z,36.33
2023-02-12T04:36:15.632Z,35.97
2023-02-12T04:37:01.914Z,35.23
2023-02-12T04:37:44.331Z,36.37
2023-02-12T04:38:28.741Z,36.70
2023-02-12T04:39:07.052Z,37.17
2023-02-12T04:39:42.292Z,36.00
2023-02-12T04:40:18.227Z,37.03
2023-02-12T04:40:51.701Z,36.83
2023-02-12T04:41:25.446Z,35.47
2023-02-12T04:42:03.947Z,36.73
2023-02-12T04:42:44.250Z,36.60
2023-02-12T04:43:30.095Z,38.27
2023-02-12T04:44:16.678Z,36.43
2023-02-12T04:44:48.386Z,35.93
2023-02-12T04:45:28.546Z,36.10
2023-02-12T04:46:01.028Z,37.40
2023-02-12T04:46:32.765Z,36.30
2023-02-12T04:47:04.472Z,35.77
2023-02-12T04:47:36.174Z,36.00
2023-02-12T04:48:08.010Z,37.37
2023-02-12T04:48:54.775Z,36.23
2023-02-12T04:49:27.515Z,35.63
2023-02-12T04:49:59.180Z,35.70
2023-02-12T04:50:43.054Z,36.10
2023-02-12T04:51:14.682Z,36.60
2023-02-12T04:51:47.507Z,35.50
2023-02-12T04:52:19.153Z,36.77
2023-02-12T04:52:50.947Z,36.83
2023-02-12T04:53:22.700Z,35.57
2023-02-12T04:53:57.333Z,35.50
2023-02-12T04:54:29.041Z,35.73
2023-02-12T04:55:00.721Z,36.67
2023-02-12T04:55:32.430Z,36.53
2023-02-12T04:56:04.369Z,37.43
2023-02-12T04:56:36.396Z,36.90
2023-02-12T04:57:09.243Z,34.73
2023-02-12T04:57:40.995Z,35.13
2023-02-12T04:58:12.887Z,36.03
2023-02-12T04:58:44.653Z,36.83
2023-02-12T04:59:17.025Z,36.13
2023-02-12T04:59:48.720Z,37.37
2023-02-12T05:00:20.635Z,35.53
2023-02-12T05:00:52.365Z,36.73
2023-02-12T05:01:25.668Z,36.17
2023-02-12T05:01:57.388Z,36.43
2023-02-12T05:02:29.045Z,35.83
2023-02-12T05:03:00.722Z,36.23
2023-02-12T05:03:32.409Z,35.53
2023-02-12T05:04:05.404Z,35.33
2023-02-12T05:04:37.094Z,35.13
2023-02-12T05:05:08.847Z,36.23
2023-02-12T05:05:40.538Z,36.10
2023-02-12T05:06:12.254Z,35.50
2023-02-12T05:06:45.412Z,36.27
2023-02-12T05:07:17.305Z,35.60
2023-02-12T05:07:49.044Z,35.40
2023-02-12T05:08:20.738Z,35.43
2023-02-12T05:08:55.200Z,36.73
2023-02-12T05:09:26.855Z,35.67
2023-02-12T05:09:58.510Z,36.80
2023-02-12T05:10:30.305Z,36.70
2023-02-12T05:11:09.655Z,37.20
2023-02-12T05:11:41.333Z,35.53
2023-02-12T05:12:12.971Z,35.57
2023-02-12T05:12:44.659Z,35.80
2023-02-12T05:13:16.313Z,36.10
2023-02-12T05:13:52.469Z,36.33
2023-02-12T05:14:26.976Z,35.67
2023-02-12T05:14:58.745Z,36.73
2023-02-12T05:15:30.520Z,39.33
2023-02-12T05:16:06.959Z,37.10
2023-02-12T05:16:38.817Z,36.80
2023-02-12T05:17:10.472Z,38.37
2023-02-12T05:17:42.358Z,37.83
2023-02-12T05:18:13.990Z,36.77
2023-02-12T05:18:45.639Z,38.27
2023-02-12T05:19:17.326Z,39.47
2023-02-12T05:19:48.981Z,37.57
2023-02-12T05:20:20.640Z,38.10
2023-02-12T05:21:02.909Z,38.07
2023-02-12T05:21:34.570Z,36.90
2023-02-12T05:22:06.249Z,37.83
2023-02-12T05:22:38.026Z,36.70
2023-02-12T05:23:09.675Z,36.20
2023-02-12T05:23:42.335Z,37.33
2023-02-12T05:24:13.990Z,37.77
2023-02-12T05:24:45.739Z,36.83
2023-02-12T05:25:17.518Z,36.70
2023-02-12T05:25:49.179Z,36.67
2023-02-12T05:26:22.660Z,37.80
2023-02-12T05:26:54.346Z,37.03
2023-02-12T05:27:26.085Z,37.20
2023-02-12T05:27:57.793Z,36.37
2023-02-12T05:28:30.448Z,37.27
2023-02-12T05:29:02.170Z,35.87
2023-02-12T05:29:33.921Z,36.80
2023-02-12T05:30:06.405Z,37.40
2023-02-12T05:30:38.067Z,35.93
2023-02-12T05:31:13.367Z,36.07
2023-02-12T05:31:45.435Z,36.23
2023-02-12T05:32:17.206Z,36.90
2023-02-12T05:32:48.958Z,38.33
2023-02-12T05:33:20.624Z,37.90
2023-02-12T05:33:52.794Z,36.53
2023-02-12T05:34:24.464Z,36.00
2023-02-12T05:34:56.120Z,36.10
2023-02-12T05:35:28.899Z,36.60
2023-02-12T05:36:05.971Z,37.70
2023-02-12T05:36:38.391Z,36.87
2023-02-12T05:37:10.084Z,38.30
2023-02-12T05:37:41.732Z,36.10
2023-02-12T05:38:13.380Z,36.23
2023-02-12T05:38:45.050Z,35.87
2023-02-12T05:39:16.857Z,36.83
2023-02-12T05:39:50.410Z,37.03
2023-02-12T05:40:22.185Z,37.30
2023-02-12T05:40:53.858Z,37.57
2023-02-12T05:41:25.607Z,36.47
2023-02-12T05:41:57.364Z,36.50
2023-02-12T05:42:30.271Z,36.70
2023-02-12T05:43:02.446Z,36.00
2023-02-12T05:43:34.281Z,37.87
2023-02-12T05:44:06.721Z,36.90
2023-02-12T05:44:38.505Z,35.23
2023-02-12T05:45:10.247Z,34.83
2023-02-12T05:45:44.249Z,37.87
2023-02-12T05:46:17.028Z,37.13
2023-02-12T05:46:48.819Z,35.67
2023-02-12T05:47:20.576Z,35.80
2023-02-12T05:47:52.230Z,36.23
2023-02-12T05:48:23.914Z,37.10
2023-02-12T05:48:55.578Z,35.13
2023-02-12T05:49:27.357Z,37.20
2023-02-12T05:49:58.986Z,36.43
2023-02-12T05:50:30.652Z,37.50
2023-02-12T05:51:12.422Z,37.97
2023-02-12T05:51:44.111Z,36.77
2023-02-12T05:52:15.744Z,37.07
2023-02-12T05:52:47.695Z,36.43
2023-02-12T05:53:19.443Z,36.33
2023-02-12T05:53:55.786Z,35.90
2023-02-12T05:54:27.466Z,35.90
2023-02-12T05:54:59.091Z,35.37
2023-02-12T05:55:31.279Z,36.63
2023-02-12T05:56:21.138Z,36.90
2023-02-12T05:56:52.802Z,37.00
2023-02-12T05:57:24.507Z,36.70
2023-02-12T05:57:56.158Z,36.30
2023-02-12T05:58:27.842Z,37.57
2023-02-12T05:59:13.810Z,37.37
2023-02-12T05:59:45.598Z,36.63
2023-02-12T06:00:19.894Z,35.33
2023-02-12T06:00:51.574Z,36.77
2023-02-12T06:01:27.222Z,36.03
2023-02-12T06:01:58.922Z,36.10
2023-02-12T06:02:30.688Z,35.87
2023-02-12T06:03:02.545Z,37.00
2023-02-12T06:03:34.379Z,36.93
2023-02-12T06:04:09.047Z,35.90
2023-02-12T06:04:40.852Z,35.80
2023-02-12T06:05:12.520Z,36.70
2023-02-12T06:05:50.933Z,36.23
2023-02-12T06:06:24.763Z,36.27
2023-02-12T06:06:57.039Z,37.17
2023-02-12T06:07:28.996Z,37.60
2023-02-12T06:08:03.045Z,36.20
2023-02-12T06:08:35.016Z,36.33
2023-02-12T06:09:06.796Z,38.47
2023-02-12T06:09:38.444Z,37.70
2023-02-12T06:10:10.509Z,37.03
2023-02-12T06:10:42.244Z,37.07
2023-02-12T06:11:15.160Z,37.47
2023-02-12T06:11:46.999Z,36.17
2023-02-12T06:12:18.643Z,34.90
2023-02-12T06:12:54.858Z,38.27
2023-02-12T06:13:26.503Z,37.10
2023-02-12T06:13:58.159Z,36.93
2023-02-12T06:14:31.889Z,37.13
2023-02-12T06:15:04.012Z,36.33
2023-02-12T06:15:38.816Z,38.30
2023-02-12T06:16:22.511Z,38.37
2023-02-12T06:16:54.321Z,37.77
2023-02-12T06:17:26.011Z,38.27
2023-02-12T06:17:57.672Z,38.07
2023-02-12T06:18:30.013Z,36.53
2023-02-12T06:19:04.584Z,37.90
2023-02-12T06:19:36.767Z,37.73
2023-02-12T06:20:08.511Z,36.90
2023-02-12T06:20:40.419Z,37.80
2023-02-12T06:21:12.129Z,38.43
2023-02-12T06:21:44.453Z,37.70
2023-02-12T06:22:16.130Z,37.37
2023-02-12T06:22:47.826Z,37.20
2023-02-12T06:23:19.789Z,37.60
2023-02-12T06:23:52.464Z,38.37
2023-02-12T06:24:24.461Z,38.63
2023-02-12T06:24:56.118Z,37.67
2023-02-12T06:25:28.307Z,39.53
2023-02-12T06:25:59.995Z,38.93
2023-02-12T06:26:31.702Z,38.07
2023-02-12T06:27:03.933Z,38.13
2023-02-12T06:27:35.661Z,38.57
2023-02-12T06:28:07.403Z,39.57
2023-02-12T06:28:39.520Z,37.77
2023-02-12T06:29:11.396Z,37.50
2023-02-12T06:29:43.247Z,38.47
2023-02-12T06:30:15.379Z,40.33
2023-02-12T06:30:47.053Z,39.03
2023-02-12T06:31:25.358Z,38.40
2023-02-12T06:31:57.247Z,38.17
2023-02-12T06:32:28.970Z,38.17
2023-02-12T06:33:01.527Z,37.17
2023-02-12T06:33:35.652Z,37.13
2023-02-12T06:34:10.042Z,39.17
2023-02-12T06:34:41.855Z,38.27
2023-02-12T06:35:13.559Z,36.83
2023-02-12T06:35:45.537Z,36.77
2023-02-12T06:36:18.284Z,38.10
2023-02-12T06:36:51.978Z,37.83
2023-02-12T06:37:23.688Z,37.17
2023-02-12T06:37:55.379Z,37.17
2023-02-12T06:38:27.106Z,38.30
2023-02-12T06:39:01.755Z,38.83
2023-02-12T06:39:33.417Z,37.53
2023-02-12T06:40:05.921Z,36.20
2023-02-12T06:40:37.666Z,37.03
2023-02-12T06:41:09.852Z,38.40
2023-02-12T06:41:42.197Z,37.53
2023-02-12T06:42:13.836Z,37.63
2023-02-12T06:42:45.563Z,38.57
2023-02-12T06:43:17.324Z,38.97
2023-02-12T06:43:49.664Z,37.23
2023-02-12T06:44:21.340Z,36.27
2023-02-12T06:44:53.184Z,37.00
2023-02-12T06:45:24.885Z,38.27
2023-02-12T06:46:00.215Z,37.47
2023-02-12T06:46:32.346Z,36.07
2023-02-12T06:47:04.055Z,37.20
2023-02-12T06:47:35.858Z,39.63
2023-02-12T06:48:07.578Z,38.53
2023-02-12T06:48:39.507Z,37.10
2023-02-12T06:49:13.156Z,37.20
2023-02-12T06:49:44.864Z,36.87
2023-02-12T06:50:16.788Z,37.43
2023-02-12T06:50:48.445Z,38.07
2023-02-12T06:51:21.925Z,37.33
2023-02-12T06:51:53.601Z,38.30
2023-02-12T06:52:25.271Z,38.23
2023-02-12T06:52:58.642Z,39.00
2023-02-12T06:53:30.298Z,37.47
2023-02-12T06:54:01.920Z,36.03
2023-02-12T06:54:33.939Z,37.40
2023-02-12T06:55:05.868Z,37.17
2023-02-12T06:55:37.551Z,36.70
2023-02-12T06:56:13.035Z,37.63
2023-02-12T06:56:45.560Z,37.13
2023-02-12T06:57:17.216Z,36.53
2023-02-12T06:57:48.885Z,36.73
2023-02-12T06:58:20.534Z,36.03
2023-02-12T06:58:56.208Z,37.37
2023-02-12T06:59:27.902Z,38.43
2023-02-12T06:59:59.538Z,38.70
2023-02-12T07:00:31.413Z,38.13
2023-02-12T07:01:18.740Z,38.33
2023-02-12T07:01:50.396Z,37.57
2023-02-12T07:02:23.328Z,37.77
2023-02-12T07:02:56.168Z,36.57
2023-02-12T07:03:27.854Z,37.43
2023-02-12T07:04:02.500Z,38.13
2023-02-12T07:04:34.353Z,38.20
2023-02-12T07:05:06.313Z,37.43
2023-02-12T07:05:40.197Z,37.40
2023-02-12T07:06:11.909Z,36.03
2023-02-12T07:06:43.563Z,37.50
2023-02-12T07:07:15.227Z,37.87
2023-02-12T07:07:46.858Z,36.83
2023-02-12T07:08:18.500Z,34.30
2023-02-12T07:08:50.569Z,34.27
2023-02-12T07:09:22.267Z,35.10
2023-02-12T07:09:53.987Z,34.73
2023-02-12T07:10:25.633Z,35.00
2023-02-12T07:10:57.309Z,34.97
2023-02-12T07:11:32.016Z,34.87
2023-02-12T07:12:03.829Z,34.53
2023-02-12T07:12:35.545Z,34.37
2023-02-12T07:13:07.201Z,35.63
2023-02-12T07:13:41.403Z,32.63
2023-02-12T07:14:15.478Z,33.50
2023-02-12T07:14:47.123Z,33.77
2023-02-12T07:15:18.764Z,35.13
2023-02-12T07:15:50.507Z,36.03
2023-02-12T07:16:22.941Z,35.93
2023-02-12T07:16:57.277Z,35.23
2023-02-12T07:17:31.984Z,42.23
2023-02-12T07:18:03.716Z,53.10
2023-02-12T07:18:36.397Z,41.10
2023-02-12T07:19:14.848Z,38.33
2023-02-12T07:19:46.511Z,41.17
2023-02-12T07:20:18.687Z,45.03
2023-02-12T07:20:50.332Z,40.83
2023-02-12T07:21:22.020Z,40.70
2023-02-12T07:21:53.665Z,62.50
2023-02-12T07:22:25.372Z,59.40
2023-02-12T07:22:57.045Z,41.17
2023-02-12T07:23:28.820Z,38.17
2023-02-12T07:24:00.474Z,41.10
2023-02-12T07:24:32.121Z,51.40
2023-02-12T07:25:04.165Z,60.17
2023-02-12T07:25:35.882Z,45.27
2023-02-12T07:26:11.556Z,37.63
2023-02-12T07:26:43.253Z,34.73
2023-02-12T07:27:15.444Z,37.00
2023-02-12T07:27:47.086Z,37.13
2023-02-12T07:28:18.802Z,61.33
2023-02-12T07:28:51.066Z,52.93
2023-02-12T07:29:22.734Z,41.13
2023-02-12T07:29:54.357Z,47.90
2023-02-12T07:30:26.060Z,46.43
2023-02-12T07:30:57.793Z,38.53
2023-02-12T07:31:30.093Z,97.10
2023-02-12T07:32:01.928Z,552.70
2023-02-12T07:32:34.820Z,369.27
2023-02-12T07:33:06.575Z,161.87
2023-02-12T07:33:39.290Z,59.60
2023-02-12T07:34:11.596Z,45.00
2023-02-12T07:34:43.247Z,53.00
2023-02-12T07:35:14.947Z,38.73
2023-02-12T07:35:46.785Z,38.07
2023-02-12T07:36:19.930Z,37.20
2023-02-12T07:36:51.604Z,33.03
2023-02-12T07:37:23.255Z,32.07
2023-02-12T07:37:54.924Z,32.20
2023-02-12T07:38:26.581Z,32.17
2023-02-12T07:38:59.584Z,32.43
2023-02-12T07:39:31.231Z,32.63
2023-02-12T07:40:03.744Z,32.97
2023-02-12T07:40:36.131Z,36.30
2023-02-12T07:41:20.034Z,33.37
2023-02-12T07:41:51.742Z,33.10
2023-02-12T07:42:23.447Z,32.93
2023-02-12T07:42:56.283Z,32.97
2023-02-12T07:43:27.935Z,32.97
2023-02-12T07:44:03.813Z,34.43